sensor_id;sensor_type;location;lat;lon;timestamp;P1;durP1;ratioP1;P2;durP2;ratioP2
22230;SDS011;11284;48.086;-1.652;2022-11-14T00:00:26;15.02;;;12.95;;
22230;SDS011;11284;48.086;-1.652;2022-11-14T00:02:52;18.88;;;14.07;;
22230;SDS011;11284;48.086;-1.652;2022-11-14T00:05:19;18.73;;;14.50;;
22230;SDS011;11284;48.086;-1.652;2022-11-14T00:07:45;19.42;;;14.63;;
22230;SDS011;11284;48.086;-1.652;2022-11-14T00:10:12;16.38;;;13.25;;
22230;SDS011;11284;48.086;-1.652;2022-11-14T00:12:38;18.05;;;14.18;;
22230;SDS011;11284;48.086;-1.652;2022-11-14T00:15:04;19.15;;;14.30;;
22230;SDS011;11284;48.086;-1.652;2022-11-14T00:17:30;17.38;;;13.68;;
22230;SDS011;11284;48.086;-1.652;2022-11-14T00:19:56;15.77;;;13.80;;
22230;SDS011;11284;48.086;-1.652;2022-11-14T00:22:22;15.35;;;13.25;;
22230;SDS011;11284;48.086;-1.652;2022-11-14T00:24:48;17.00;;;13.38;;
22230;SDS011;11284;48.086;-1.652;2022-11-14T00:27:14;15.68;;;12.95;;
22230;SDS011;11284;48.086;-1.652;2022-11-14T00:29:40;13.50;;;11.57;;
22230;SDS011;11284;48.086;-1.652;2022-11-14T00:32:06;14.40;;;11.95;;
22230;SDS011;11284;48.086;-1.652;2022-11-14T00:34:32;14.70;;;12.23;;
22230;SDS011;11284;48.086;-1.652;2022-11-14T00:36:59;13.95;;;11.23;;
22230;SDS011;11284;48.086;-1.652;2022-11-14T00:39:25;15.93;;;11.90;;
22230;SDS011;11284;48.086;-1.652;2022-11-14T00:41:51;14.18;;;11.02;;
22230;SDS011;11284;48.086;-1.652;2022-11-14T00:44:17;14.60;;;11.20;;
22230;SDS011;11284;48.086;-1.652;2022-11-14T00:46:43;11.55;;;10.32;;
22230;SDS011;11284;48.086;-1.652;2022-11-14T00:49:09;13.13;;;10.70;;
22230;SDS011;11284;48.086;-1.652;2022-11-14T00:51:35;13.00;;;10.63;;
22230;SDS011;11284;48.086;-1.652;2022-11-14T00:54:02;12.88;;;10.35;;
22230;SDS011;11284;48.086;-1.652;2022-11-14T00:56:28;12.60;;;10.48;;
22230;SDS011;11284;48.086;-1.652;2022-11-14T00:58:54;11.55;;;9.70;;
22230;SDS011;11284;48.086;-1.652;2022-11-14T01:01:20;11.70;;;9.95;;
22230;SDS011;11284;48.086;-1.652;2022-11-14T01:03:47;13.27;;;10.82;;
22230;SDS011;11284;48.086;-1.652;2022-11-14T01:06:13;11.27;;;9.88;;
22230;SDS011;11284;48.086;-1.652;2022-11-14T01:08:40;11.15;;;10.05;;
22230;SDS011;11284;48.086;-1.652;2022-11-14T01:11:10;11.77;;;10.13;;
22230;SDS011;11284;48.086;-1.652;2022-11-14T01:13:36;12.23;;;10.38;;
22230;SDS011;11284;48.086;-1.652;2022-11-14T01:16:03;11.15;;;9.95;;
22230;SDS011;11284;48.086;-1.652;2022-11-14T01:18:29;11.65;;;9.80;;
22230;SDS011;11284;48.086;-1.652;2022-11-14T01:20:55;12.55;;;10.52;;
22230;SDS011;11284;48.086;-1.652;2022-11-14T01:23:21;11.70;;;10.27;;
22230;SDS011;11284;48.086;-1.652;2022-11-14T01:25:47;12.15;;;10.40;;
22230;SDS011;11284;48.086;-1.652;2022-11-14T01:28:14;11.88;;;10.05;;
22230;SDS011;11284;48.086;-1.652;2022-11-14T01:30:41;12.50;;;10.48;;
22230;SDS011;11284;48.086;-1.652;2022-11-14T01:33:07;13.68;;;10.45;;
22230;SDS011;11284;48.086;-1.652;2022-11-14T01:35:33;11.25;;;9.70;;
22230;SDS011;11284;48.086;-1.652;2022-11-14T01:37:59;11.90;;;10.15;;
22230;SDS011;11284;48.086;-1.652;2022-11-14T01:40:26;13.95;;;10.15;;
22230;SDS011;11284;48.086;-1.652;2022-11-14T01:43:20;12.43;;;10.45;;
22230;SDS011;11284;48.086;-1.652;2022-11-14T01:50:49;13.88;;;10.23;;
22230;SDS011;11284;48.086;-1.652;2022-11-14T01:53:17;11.73;;;9.95;;
22230;SDS011;11284;48.086;-1.652;2022-11-14T01:55:44;11.60;;;10.27;;
22230;SDS011;11284;48.086;-1.652;2022-11-14T01:58:10;12.50;;;10.27;;
22230;SDS011;11284;48.086;-1.652;2022-11-14T02:00:36;13.18;;;10.02;;
22230;SDS011;11284;48.086;-1.652;2022-11-14T02:03:02;10.93;;;9.80;;
22230;SDS011;11284;48.086;-1.652;2022-11-14T02:05:28;13.63;;;10.15;;
22230;SDS011;11284;48.086;-1.652;2022-11-14T02:07:55;13.27;;;10.70;;
22230;SDS011;11284;48.086;-1.652;2022-11-14T02:10:21;13.88;;;10.98;;
22230;SDS011;11284;48.086;-1.652;2022-11-14T02:12:47;11.10;;;9.82;;
22230;SDS011;11284;48.086;-1.652;2022-11-14T02:15:14;14.35;;;11.02;;
22230;SDS011;11284;48.086;-1.652;2022-11-14T02:17:40;12.05;;;10.68;;
22230;SDS011;11284;48.086;-1.652;2022-11-14T02:22:37;12.57;;;10.25;;
22230;SDS011;11284;48.086;-1.652;2022-11-14T02:25:03;12.60;;;10.10;;
22230;SDS011;11284;48.086;-1.652;2022-11-14T02:27:30;12.13;;;10.30;;
22230;SDS011;11284;48.086;-1.652;2022-11-14T02:30:09;11.82;;;10.32;;
22230;SDS011;11284;48.086;-1.652;2022-11-14T02:32:36;13.23;;;10.43;;
22230;SDS011;11284;48.086;-1.652;2022-11-14T02:35:02;12.65;;;10.75;;
22230;SDS011;11284;48.086;-1.652;2022-11-14T02:37:28;14.15;;;10.45;;
22230;SDS011;11284;48.086;-1.652;2022-11-14T02:39:54;12.23;;;10.55;;
22230;SDS011;11284;48.086;-1.652;2022-11-14T02:42:20;11.90;;;9.70;;
22230;SDS011;11284;48.086;-1.652;2022-11-14T02:44:46;12.18;;;10.27;;
22230;SDS011;11284;48.086;-1.652;2022-11-14T02:47:12;10.63;;;9.40;;
22230;SDS011;11284;48.086;-1.652;2022-11-14T02:49:38;11.85;;;9.70;;
22230;SDS011;11284;48.086;-1.652;2022-11-14T02:52:04;11.57;;;9.93;;
22230;SDS011;11284;48.086;-1.652;2022-11-14T02:54:30;11.10;;;9.52;;
22230;SDS011;11284;48.086;-1.652;2022-11-14T02:56:56;11.30;;;9.90;;
22230;SDS011;11284;48.086;-1.652;2022-11-14T02:59:22;13.45;;;9.85;;
22230;SDS011;11284;48.086;-1.652;2022-11-14T03:01:48;11.25;;;9.73;;
22230;SDS011;11284;48.086;-1.652;2022-11-14T03:04:14;11.70;;;9.85;;
22230;SDS011;11284;48.086;-1.652;2022-11-14T03:06:40;11.50;;;9.32;;
22230;SDS011;11284;48.086;-1.652;2022-11-14T03:09:06;11.80;;;9.68;;
22230;SDS011;11284;48.086;-1.652;2022-11-14T03:11:32;11.73;;;9.60;;
22230;SDS011;11284;48.086;-1.652;2022-11-14T03:13:58;10.75;;;9.48;;
22230;SDS011;11284;48.086;-1.652;2022-11-14T03:16:25;12.23;;;9.40;;
22230;SDS011;11284;48.086;-1.652;2022-11-14T03:18:51;11.98;;;10.02;;
22230;SDS011;11284;48.086;-1.652;2022-11-14T03:21:18;11.27;;;10.02;;
22230;SDS011;11284;48.086;-1.652;2022-11-14T03:23:44;12.30;;;10.07;;
22230;SDS011;11284;48.086;-1.652;2022-11-14T03:26:10;11.88;;;10.05;;
22230;SDS011;11284;48.086;-1.652;2022-11-14T03:28:37;12.25;;;10.02;;
22230;SDS011;11284;48.086;-1.652;2022-11-14T03:31:03;12.25;;;10.20;;
22230;SDS011;11284;48.086;-1.652;2022-11-14T03:33:30;10.65;;;9.55;;
22230;SDS011;11284;48.086;-1.652;2022-11-14T03:35:56;13.68;;;10.35;;
22230;SDS011;11284;48.086;-1.652;2022-11-14T03:38:22;13.20;;;10.18;;
22230;SDS011;11284;48.086;-1.652;2022-11-14T03:40:48;12.02;;;9.55;;
22230;SDS011;11284;48.086;-1.652;2022-11-14T03:43:15;11.90;;;10.13;;
22230;SDS011;11284;48.086;-1.652;2022-11-14T03:45:41;13.40;;;9.95;;
22230;SDS011;11284;48.086;-1.652;2022-11-14T03:48:07;12.82;;;9.80;;
22230;SDS011;11284;48.086;-1.652;2022-11-14T03:50:33;12.32;;;9.60;;
22230;SDS011;11284;48.086;-1.652;2022-11-14T03:52:59;11.27;;;10.07;;
22230;SDS011;11284;48.086;-1.652;2022-11-14T03:55:26;12.55;;;9.77;;
22230;SDS011;11284;48.086;-1.652;2022-11-14T03:57:52;12.60;;;9.27;;
22230;SDS011;11284;48.086;-1.652;2022-11-14T04:00:18;13.27;;;10.40;;
22230;SDS011;11284;48.086;-1.652;2022-11-14T04:02:44;11.20;;;9.63;;
22230;SDS011;11284;48.086;-1.652;2022-11-14T04:05:10;13.35;;;10.05;;
22230;SDS011;11284;48.086;-1.652;2022-11-14T04:07:36;11.20;;;9.48;;
22230;SDS011;11284;48.086;-1.652;2022-11-14T04:10:02;13.18;;;9.80;;
22230;SDS011;11284;48.086;-1.652;2022-11-14T04:12:28;12.60;;;9.40;;
22230;SDS011;11284;48.086;-1.652;2022-11-14T04:14:54;11.55;;;9.57;;
22230;SDS011;11284;48.086;-1.652;2022-11-14T04:17:20;11.25;;;9.48;;
22230;SDS011;11284;48.086;-1.652;2022-11-14T04:19:46;12.00;;;10.20;;
22230;SDS011;11284;48.086;-1.652;2022-11-14T04:22:12;13.15;;;9.77;;
22230;SDS011;11284;48.086;-1.652;2022-11-14T04:24:38;12.63;;;9.57;;
22230;SDS011;11284;48.086;-1.652;2022-11-14T04:27:04;11.18;;;9.30;;
22230;SDS011;11284;48.086;-1.652;2022-11-14T04:29:30;11.88;;;9.57;;
22230;SDS011;11284;48.086;-1.652;2022-11-14T04:31:56;11.02;;;9.25;;
22230;SDS011;11284;48.086;-1.652;2022-11-14T04:34:22;13.73;;;9.63;;
22230;SDS011;11284;48.086;-1.652;2022-11-14T04:36:48;11.68;;;9.10;;
22230;SDS011;11284;48.086;-1.652;2022-11-14T04:39:17;11.23;;;8.75;;
22230;SDS011;11284;48.086;-1.652;2022-11-14T04:41:43;10.80;;;9.18;;
22230;SDS011;11284;48.086;-1.652;2022-11-14T04:44:09;9.45;;;8.27;;
22230;SDS011;11284;48.086;-1.652;2022-11-14T04:46:35;11.48;;;9.93;;
22230;SDS011;11284;48.086;-1.652;2022-11-14T04:49:01;11.77;;;9.00;;
22230;SDS011;11284;48.086;-1.652;2022-11-14T04:51:27;10.55;;;9.25;;
22230;SDS011;11284;48.086;-1.652;2022-11-14T04:53:53;10.73;;;9.27;;
22230;SDS011;11284;48.086;-1.652;2022-11-14T04:56:19;12.85;;;9.88;;
22230;SDS011;11284;48.086;-1.652;2022-11-14T04:58:47;11.02;;;9.25;;
22230;SDS011;11284;48.086;-1.652;2022-11-14T05:01:13;11.77;;;9.40;;
22230;SDS011;11284;48.086;-1.652;2022-11-14T05:03:39;11.68;;;9.30;;
22230;SDS011;11284;48.086;-1.652;2022-11-14T05:06:06;11.85;;;8.73;;
22230;SDS011;11284;48.086;-1.652;2022-11-14T05:08:32;10.55;;;8.93;;
22230;SDS011;11284;48.086;-1.652;2022-11-14T05:10:58;10.60;;;8.88;;
22230;SDS011;11284;48.086;-1.652;2022-11-14T05:13:24;12.27;;;10.23;;
22230;SDS011;11284;48.086;-1.652;2022-11-14T05:15:50;11.82;;;9.38;;
22230;SDS011;11284;48.086;-1.652;2022-11-14T05:18:16;12.35;;;9.40;;
22230;SDS011;11284;48.086;-1.652;2022-11-14T05:20:42;13.02;;;9.82;;
22230;SDS011;11284;48.086;-1.652;2022-11-14T05:23:18;13.40;;;9.23;;
22230;SDS011;11284;48.086;-1.652;2022-11-14T05:25:45;13.00;;;9.60;;
22230;SDS011;11284;48.086;-1.652;2022-11-14T05:28:11;10.77;;;9.10;;
22230;SDS011;11284;48.086;-1.652;2022-11-14T05:30:37;11.63;;;9.98;;
22230;SDS011;11284;48.086;-1.652;2022-11-14T05:33:03;11.68;;;9.15;;
22230;SDS011;11284;48.086;-1.652;2022-11-14T05:35:29;11.35;;;9.55;;
22230;SDS011;11284;48.086;-1.652;2022-11-14T05:37:55;12.18;;;9.52;;
22230;SDS011;11284;48.086;-1.652;2022-11-14T05:40:21;10.88;;;9.73;;
22230;SDS011;11284;48.086;-1.652;2022-11-14T05:42:47;12.43;;;9.30;;
22230;SDS011;11284;48.086;-1.652;2022-11-14T05:45:13;13.65;;;9.90;;
22230;SDS011;11284;48.086;-1.652;2022-11-14T05:47:39;13.52;;;9.98;;
22230;SDS011;11284;48.086;-1.652;2022-11-14T05:50:05;10.38;;;8.93;;
22230;SDS011;11284;48.086;-1.652;2022-11-14T05:52:31;12.10;;;9.32;;
22230;SDS011;11284;48.086;-1.652;2022-11-14T05:54:57;13.25;;;9.57;;
22230;SDS011;11284;48.086;-1.652;2022-11-14T05:57:23;13.38;;;10.00;;
22230;SDS011;11284;48.086;-1.652;2022-11-14T05:59:49;12.15;;;8.95;;
22230;SDS011;11284;48.086;-1.652;2022-11-14T06:02:15;10.90;;;9.18;;
22230;SDS011;11284;48.086;-1.652;2022-11-14T06:04:41;12.40;;;9.52;;
22230;SDS011;11284;48.086;-1.652;2022-11-14T06:07:07;11.32;;;9.50;;
22230;SDS011;11284;48.086;-1.652;2022-11-14T06:09:33;12.30;;;9.93;;
22230;SDS011;11284;48.086;-1.652;2022-11-14T06:11:59;12.27;;;9.63;;
22230;SDS011;11284;48.086;-1.652;2022-11-14T06:14:29;12.80;;;9.32;;
22230;SDS011;11284;48.086;-1.652;2022-11-14T06:16:55;12.52;;;9.73;;
22230;SDS011;11284;48.086;-1.652;2022-11-14T06:19:21;14.68;;;9.98;;
22230;SDS011;11284;48.086;-1.652;2022-11-14T06:21:47;12.68;;;9.82;;
22230;SDS011;11284;48.086;-1.652;2022-11-14T06:24:13;11.75;;;9.55;;
22230;SDS011;11284;48.086;-1.652;2022-11-14T06:26:40;12.48;;;9.85;;
22230;SDS011;11284;48.086;-1.652;2022-11-14T06:29:06;12.70;;;9.90;;
22230;SDS011;11284;48.086;-1.652;2022-11-14T06:31:32;12.93;;;9.75;;
22230;SDS011;11284;48.086;-1.652;2022-11-14T06:33:58;12.93;;;10.38;;
22230;SDS011;11284;48.086;-1.652;2022-11-14T06:36:24;11.88;;;9.95;;
22230;SDS011;11284;48.086;-1.652;2022-11-14T06:38:50;12.52;;;9.70;;
22230;SDS011;11284;48.086;-1.652;2022-11-14T06:41:17;12.30;;;9.40;;
22230;SDS011;11284;48.086;-1.652;2022-11-14T06:43:44;22.35;;;18.63;;
22230;SDS011;11284;48.086;-1.652;2022-11-14T06:46:13;14.82;;;11.93;;
22230;SDS011;11284;48.086;-1.652;2022-11-14T06:48:39;13.15;;;10.52;;
22230;SDS011;11284;48.086;-1.652;2022-11-14T06:51:06;13.85;;;9.68;;
22230;SDS011;11284;48.086;-1.652;2022-11-14T06:53:33;11.10;;;9.68;;
22230;SDS011;11284;48.086;-1.652;2022-11-14T06:56:09;10.65;;;9.18;;
22230;SDS011;11284;48.086;-1.652;2022-11-14T06:58:36;11.43;;;9.45;;
22230;SDS011;11284;48.086;-1.652;2022-11-14T07:01:06;12.05;;;9.63;;
22230;SDS011;11284;48.086;-1.652;2022-11-14T07:03:33;12.18;;;8.80;;
22230;SDS011;11284;48.086;-1.652;2022-11-14T07:05:59;12.32;;;9.95;;
22230;SDS011;11284;48.086;-1.652;2022-11-14T07:08:26;11.02;;;8.98;;
22230;SDS011;11284;48.086;-1.652;2022-11-14T07:10:52;12.35;;;9.80;;
22230;SDS011;11284;48.086;-1.652;2022-11-14T07:13:18;11.68;;;9.90;;
22230;SDS011;11284;48.086;-1.652;2022-11-14T07:15:51;11.63;;;9.07;;
22230;SDS011;11284;48.086;-1.652;2022-11-14T07:18:17;11.43;;;9.15;;
22230;SDS011;11284;48.086;-1.652;2022-11-14T07:20:43;12.27;;;9.13;;
22230;SDS011;11284;48.086;-1.652;2022-11-14T07:23:09;12.05;;;8.95;;
22230;SDS011;11284;48.086;-1.652;2022-11-14T07:25:35;12.50;;;9.07;;
22230;SDS011;11284;48.086;-1.652;2022-11-14T07:28:01;11.52;;;9.25;;
22230;SDS011;11284;48.086;-1.652;2022-11-14T07:30:27;13.68;;;9.52;;
22230;SDS011;11284;48.086;-1.652;2022-11-14T07:32:56;12.18;;;9.45;;
22230;SDS011;11284;48.086;-1.652;2022-11-14T07:35:22;12.48;;;8.70;;
22230;SDS011;11284;48.086;-1.652;2022-11-14T07:37:49;11.68;;;9.13;;
22230;SDS011;11284;48.086;-1.652;2022-11-14T07:40:15;12.18;;;9.43;;
22230;SDS011;11284;48.086;-1.652;2022-11-14T07:42:41;12.98;;;9.27;;
22230;SDS011;11284;48.086;-1.652;2022-11-14T07:45:07;11.63;;;8.75;;
22230;SDS011;11284;48.086;-1.652;2022-11-14T07:47:34;13.40;;;9.13;;
22230;SDS011;11284;48.086;-1.652;2022-11-14T07:50:00;11.85;;;9.63;;
22230;SDS011;11284;48.086;-1.652;2022-11-14T07:52:26;11.00;;;8.90;;
22230;SDS011;11284;48.086;-1.652;2022-11-14T07:54:52;12.50;;;9.05;;
22230;SDS011;11284;48.086;-1.652;2022-11-14T07:57:17;15.20;;;9.45;;
22230;SDS011;11284;48.086;-1.652;2022-11-14T07:59:43;14.23;;;9.70;;
22230;SDS011;11284;48.086;-1.652;2022-11-14T08:02:13;14.65;;;9.85;;
22230;SDS011;11284;48.086;-1.652;2022-11-14T08:04:42;13.48;;;10.18;;
22230;SDS011;11284;48.086;-1.652;2022-11-14T08:07:08;12.68;;;9.93;;
22230;SDS011;11284;48.086;-1.652;2022-11-14T08:09:34;13.85;;;10.23;;
22230;SDS011;11284;48.086;-1.652;2022-11-14T08:12:00;16.55;;;10.73;;
22230;SDS011;11284;48.086;-1.652;2022-11-14T08:14:26;13.55;;;10.00;;
22230;SDS011;11284;48.086;-1.652;2022-11-14T08:16:52;16.75;;;10.07;;
22230;SDS011;11284;48.086;-1.652;2022-11-14T08:19:18;14.65;;;10.23;;
22230;SDS011;11284;48.086;-1.652;2022-11-14T08:21:44;13.75;;;10.48;;
22230;SDS011;11284;48.086;-1.652;2022-11-14T08:24:10;13.07;;;9.55;;
22230;SDS011;11284;48.086;-1.652;2022-11-14T08:26:36;14.48;;;9.88;;
22230;SDS011;11284;48.086;-1.652;2022-11-14T08:29:03;16.02;;;9.82;;
22230;SDS011;11284;48.086;-1.652;2022-11-14T08:31:29;17.67;;;10.57;;
22230;SDS011;11284;48.086;-1.652;2022-11-14T08:33:55;14.70;;;10.32;;
22230;SDS011;11284;48.086;-1.652;2022-11-14T08:36:21;16.08;;;10.57;;
22230;SDS011;11284;48.086;-1.652;2022-11-14T08:38:47;15.85;;;11.10;;
22230;SDS011;11284;48.086;-1.652;2022-11-14T08:41:13;15.65;;;10.38;;
22230;SDS011;11284;48.086;-1.652;2022-11-14T08:43:39;16.70;;;10.85;;
22230;SDS011;11284;48.086;-1.652;2022-11-14T08:46:05;17.80;;;10.90;;
22230;SDS011;11284;48.086;-1.652;2022-11-14T08:48:31;15.82;;;11.63;;
22230;SDS011;11284;48.086;-1.652;2022-11-14T08:51:01;15.90;;;10.93;;
22230;SDS011;11284;48.086;-1.652;2022-11-14T08:53:27;15.38;;;10.82;;
22230;SDS011;11284;48.086;-1.652;2022-11-14T08:55:53;19.55;;;11.15;;
22230;SDS011;11284;48.086;-1.652;2022-11-14T08:58:19;15.45;;;10.77;;
22230;SDS011;11284;48.086;-1.652;2022-11-14T09:00:45;18.70;;;11.50;;
22230;SDS011;11284;48.086;-1.652;2022-11-14T09:03:11;16.58;;;10.65;;
22230;SDS011;11284;48.086;-1.652;2022-11-14T09:05:39;16.15;;;11.23;;
22230;SDS011;11284;48.086;-1.652;2022-11-14T09:08:05;16.50;;;11.68;;
22230;SDS011;11284;48.086;-1.652;2022-11-14T09:10:31;15.63;;;10.68;;
22230;SDS011;11284;48.086;-1.652;2022-11-14T09:12:58;15.23;;;10.77;;
22230;SDS011;11284;48.086;-1.652;2022-11-14T09:15:24;15.93;;;10.70;;
22230;SDS011;11284;48.086;-1.652;2022-11-14T09:17:54;15.02;;;10.93;;
22230;SDS011;11284;48.086;-1.652;2022-11-14T09:20:21;16.52;;;10.95;;
22230;SDS011;11284;48.086;-1.652;2022-11-14T09:22:47;14.55;;;10.82;;
22230;SDS011;11284;48.086;-1.652;2022-11-14T09:25:16;15.68;;;10.50;;
22230;SDS011;11284;48.086;-1.652;2022-11-14T09:27:42;13.68;;;10.10;;
22230;SDS011;11284;48.086;-1.652;2022-11-14T09:30:08;20.10;;;13.13;;
22230;SDS011;11284;48.086;-1.652;2022-11-14T09:32:34;18.88;;;10.88;;
22230;SDS011;11284;48.086;-1.652;2022-11-14T09:35:00;15.75;;;10.75;;
22230;SDS011;11284;48.086;-1.652;2022-11-14T09:37:26;15.35;;;10.10;;
22230;SDS011;11284;48.086;-1.652;2022-11-14T09:39:52;14.98;;;10.85;;
22230;SDS011;11284;48.086;-1.652;2022-11-14T09:45:03;14.75;;;10.02;;
22230;SDS011;11284;48.086;-1.652;2022-11-14T09:47:38;15.13;;;10.05;;
22230;SDS011;11284;48.086;-1.652;2022-11-14T09:50:10;16.70;;;10.80;;
22230;SDS011;11284;48.086;-1.652;2022-11-14T09:52:38;15.48;;;9.48;;
22230;SDS011;11284;48.086;-1.652;2022-11-14T09:55:27;16.92;;;10.10;;
22230;SDS011;11284;48.086;-1.652;2022-11-14T09:57:54;16.50;;;9.95;;
22230;SDS011;11284;48.086;-1.652;2022-11-14T10:00:21;15.88;;;10.23;;
22230;SDS011;11284;48.086;-1.652;2022-11-14T10:17:50;15.77;;;10.82;;
22230;SDS011;11284;48.086;-1.652;2022-11-14T10:23:08;15.43;;;10.32;;
22230;SDS011;11284;48.086;-1.652;2022-11-14T10:39:21;18.85;;;11.40;;
22230;SDS011;11284;48.086;-1.652;2022-11-14T10:41:21;17.67;;;11.73;;
22230;SDS011;11284;48.086;-1.652;2022-11-14T10:43:49;16.88;;;11.32;;
22230;SDS011;11284;48.086;-1.652;2022-11-14T10:46:24;15.15;;;11.95;;
22230;SDS011;11284;48.086;-1.652;2022-11-14T10:48:51;18.85;;;11.18;;
22230;SDS011;11284;48.086;-1.652;2022-11-14T10:51:37;15.82;;;10.63;;
22230;SDS011;11284;48.086;-1.652;2022-11-14T10:56:50;14.63;;;10.30;;
22230;SDS011;11284;48.086;-1.652;2022-11-14T10:59:16;14.18;;;10.00;;
22230;SDS011;11284;48.086;-1.652;2022-11-14T11:01:43;14.43;;;9.18;;
22230;SDS011;11284;48.086;-1.652;2022-11-14T11:04:17;16.60;;;9.73;;
22230;SDS011;11284;48.086;-1.652;2022-11-14T11:06:45;14.70;;;9.07;;
22230;SDS011;11284;48.086;-1.652;2022-11-14T11:09:16;13.40;;;8.95;;
22230;SDS011;11284;48.086;-1.652;2022-11-14T11:12:02;13.63;;;8.95;;
22230;SDS011;11284;48.086;-1.652;2022-11-14T11:14:28;14.05;;;8.70;;
22230;SDS011;11284;48.086;-1.652;2022-11-14T11:17:07;11.77;;;8.32;;
22230;SDS011;11284;48.086;-1.652;2022-11-14T11:19:39;11.85;;;8.43;;
22230;SDS011;11284;48.086;-1.652;2022-11-14T11:24:50;12.82;;;8.43;;
22230;SDS011;11284;48.086;-1.652;2022-11-14T11:27:21;12.30;;;8.32;;
22230;SDS011;11284;48.086;-1.652;2022-11-14T11:32:28;11.57;;;8.35;;
22230;SDS011;11284;48.086;-1.652;2022-11-14T11:34:55;12.40;;;8.48;;
22230;SDS011;11284;48.086;-1.652;2022-11-14T11:37:29;12.60;;;8.30;;
22230;SDS011;11284;48.086;-1.652;2022-11-14T11:39:58;11.70;;;8.27;;
22230;SDS011;11284;48.086;-1.652;2022-11-14T11:42:48;11.75;;;8.20;;
22230;SDS011;11284;48.086;-1.652;2022-11-14T11:45:17;10.95;;;7.97;;
22230;SDS011;11284;48.086;-1.652;2022-11-14T11:47:45;8.88;;;6.82;;
22230;SDS011;11284;48.086;-1.652;2022-11-14T11:50:17;10.00;;;6.72;;
22230;SDS011;11284;48.086;-1.652;2022-11-14T11:55:29;8.27;;;5.57;;
22230;SDS011;11284;48.086;-1.652;2022-11-14T11:58:05;8.27;;;4.70;;
22230;SDS011;11284;48.086;-1.652;2022-11-14T12:00:31;5.78;;;3.88;;
22230;SDS011;11284;48.086;-1.652;2022-11-14T12:02:57;6.72;;;3.50;;
22230;SDS011;11284;48.086;-1.652;2022-11-14T12:05:39;5.50;;;3.55;;
22230;SDS011;11284;48.086;-1.652;2022-11-14T12:08:29;5.67;;;3.03;;
22230;SDS011;11284;48.086;-1.652;2022-11-14T12:10:56;4.90;;;2.70;;
22230;SDS011;11284;48.086;-1.652;2022-11-14T12:20:50;4.22;;;2.10;;
22230;SDS011;11284;48.086;-1.652;2022-11-14T12:29:06;3.70;;;1.00;;
22230;SDS011;11284;48.086;-1.652;2022-11-14T12:31:36;2.63;;;0.80;;
22230;SDS011;11284;48.086;-1.652;2022-11-14T12:34:05;2.50;;;0.70;;
22230;SDS011;11284;48.086;-1.652;2022-11-14T12:36:33;2.78;;;0.88;;
22230;SDS011;11284;48.086;-1.652;2022-11-14T12:38:59;2.45;;;0.85;;
22230;SDS011;11284;48.086;-1.652;2022-11-14T12:43:52;2.78;;;0.88;;
22230;SDS011;11284;48.086;-1.652;2022-11-14T12:46:18;2.40;;;0.80;;
22230;SDS011;11284;48.086;-1.652;2022-11-14T12:48:44;2.70;;;0.80;;
22230;SDS011;11284;48.086;-1.652;2022-11-14T12:53:52;6.50;;;3.70;;
22230;SDS011;11284;48.086;-1.652;2022-11-14T12:59:12;3.17;;;1.02;;
22230;SDS011;11284;48.086;-1.652;2022-11-14T13:11:53;2.97;;;0.80;;
22230;SDS011;11284;48.086;-1.652;2022-11-14T13:14:51;3.35;;;0.80;;
22230;SDS011;11284;48.086;-1.652;2022-11-14T13:17:36;4.25;;;0.70;;
22230;SDS011;11284;48.086;-1.652;2022-11-14T13:31:04;3.10;;;0.75;;
22230;SDS011;11284;48.086;-1.652;2022-11-14T13:36:10;1.80;;;0.40;;
22230;SDS011;11284;48.086;-1.652;2022-11-14T13:44:21;2.28;;;0.50;;
22230;SDS011;11284;48.086;-1.652;2022-11-14T13:51:57;4.78;;;0.90;;
22230;SDS011;11284;48.086;-1.652;2022-11-14T13:54:23;4.40;;;1.10;;
22230;SDS011;11284;48.086;-1.652;2022-11-14T13:59:36;3.72;;;0.90;;
22230;SDS011;11284;48.086;-1.652;2022-11-14T14:04:43;4.53;;;0.93;;
22230;SDS011;11284;48.086;-1.652;2022-11-14T14:14:49;6.10;;;0.98;;
22230;SDS011;11284;48.086;-1.652;2022-11-14T14:18:03;4.07;;;0.60;;
22230;SDS011;11284;48.086;-1.652;2022-11-14T14:20:16;2.17;;;0.50;;
22230;SDS011;11284;48.086;-1.652;2022-11-14T14:30:17;2.22;;;0.40;;
22230;SDS011;11284;48.086;-1.652;2022-11-14T14:33:00;4.55;;;0.55;;
22230;SDS011;11284;48.086;-1.652;2022-11-14T14:35:27;10.80;;;6.95;;
22230;SDS011;11284;48.086;-1.652;2022-11-14T14:37:54;3.25;;;0.52;;
22230;SDS011;11284;48.086;-1.652;2022-11-14T14:40:31;2.70;;;0.50;;
22230;SDS011;11284;48.086;-1.652;2022-11-14T14:42:58;1.98;;;0.52;;
22230;SDS011;11284;48.086;-1.652;2022-11-14T14:45:25;3.20;;;0.60;;
22230;SDS011;11284;48.086;-1.652;2022-11-14T14:48:25;4.18;;;0.60;;
22230;SDS011;11284;48.086;-1.652;2022-11-14T14:50:48;4.93;;;1.10;;
22230;SDS011;11284;48.086;-1.652;2022-11-14T14:53:18;4.72;;;0.88;;
22230;SDS011;11284;48.086;-1.652;2022-11-14T14:56:12;4.20;;;0.90;;
22230;SDS011;11284;48.086;-1.652;2022-11-14T14:58:32;4.05;;;0.80;;
22230;SDS011;11284;48.086;-1.652;2022-11-14T15:00:59;3.53;;;0.50;;
22230;SDS011;11284;48.086;-1.652;2022-11-14T15:03:34;4.10;;;0.90;;
22230;SDS011;11284;48.086;-1.652;2022-11-14T15:06:01;5.22;;;0.60;;
22230;SDS011;11284;48.086;-1.652;2022-11-14T15:08:28;4.43;;;0.98;;
22230;SDS011;11284;48.086;-1.652;2022-11-14T15:10:57;6.45;;;0.80;;
22230;SDS011;11284;48.086;-1.652;2022-11-14T15:13:23;6.40;;;1.05;;
22230;SDS011;11284;48.086;-1.652;2022-11-14T15:15:50;4.65;;;0.85;;
22230;SDS011;11284;48.086;-1.652;2022-11-14T15:18:23;4.60;;;1.08;;
22230;SDS011;11284;48.086;-1.652;2022-11-14T15:21:10;5.30;;;1.00;;
22230;SDS011;11284;48.086;-1.652;2022-11-14T15:23:38;5.15;;;0.90;;
22230;SDS011;11284;48.086;-1.652;2022-11-14T15:26:14;5.18;;;1.00;;
22230;SDS011;11284;48.086;-1.652;2022-11-14T15:28:41;4.45;;;1.00;;
22230;SDS011;11284;48.086;-1.652;2022-11-14T15:31:17;7.57;;;1.00;;
22230;SDS011;11284;48.086;-1.652;2022-11-14T15:33:44;4.43;;;0.95;;
22230;SDS011;11284;48.086;-1.652;2022-11-14T15:36:14;3.85;;;1.02;;
22230;SDS011;11284;48.086;-1.652;2022-11-14T15:46:02;5.55;;;1.02;;
22230;SDS011;11284;48.086;-1.652;2022-11-14T15:48:29;4.72;;;0.98;;
22230;SDS011;11284;48.086;-1.652;2022-11-14T15:50:55;4.80;;;1.10;;
22230;SDS011;11284;48.086;-1.652;2022-11-14T15:53:22;8.30;;;2.90;;
22230;SDS011;11284;48.086;-1.652;2022-11-14T15:55:49;6.45;;;1.52;;
22230;SDS011;11284;48.086;-1.652;2022-11-14T15:58:15;8.48;;;2.03;;
22230;SDS011;11284;48.086;-1.652;2022-11-14T16:00:43;7.45;;;1.67;;
22230;SDS011;11284;48.086;-1.652;2022-11-14T16:03:10;7.18;;;1.85;;
22230;SDS011;11284;48.086;-1.652;2022-11-14T16:05:36;10.40;;;6.13;;
22230;SDS011;11284;48.086;-1.652;2022-11-14T16:08:02;34.88;;;24.05;;
22230;SDS011;11284;48.086;-1.652;2022-11-14T16:10:28;7.53;;;1.83;;
22230;SDS011;11284;48.086;-1.652;2022-11-14T16:12:54;7.57;;;2.00;;
22230;SDS011;11284;48.086;-1.652;2022-11-14T16:15:20;7.38;;;1.50;;
22230;SDS011;11284;48.086;-1.652;2022-11-14T16:17:47;4.63;;;1.50;;
22230;SDS011;11284;48.086;-1.652;2022-11-14T16:20:17;8.05;;;1.80;;
22230;SDS011;11284;48.086;-1.652;2022-11-14T16:22:44;7.00;;;1.60;;
22230;SDS011;11284;48.086;-1.652;2022-11-14T16:25:17;6.80;;;1.70;;
22230;SDS011;11284;48.086;-1.652;2022-11-14T16:27:44;7.85;;;1.88;;
22230;SDS011;11284;48.086;-1.652;2022-11-14T16:30:13;6.32;;;1.60;;
22230;SDS011;11284;48.086;-1.652;2022-11-14T16:32:40;7.35;;;2.00;;
22230;SDS011;11284;48.086;-1.652;2022-11-14T16:35:13;5.57;;;1.75;;
22230;SDS011;11284;48.086;-1.652;2022-11-14T16:37:39;8.38;;;2.00;;
22230;SDS011;11284;48.086;-1.652;2022-11-14T16:40:06;6.63;;;2.03;;